createdAt,value
2018-04-23T00:01:05.082Z,93.70
2018-04-23T00:03:32.595Z,94.10
2018-04-23T00:06:00.078Z,95.10
2018-04-23T00:08:27.563Z,95.10
2018-04-23T00:10:55.811Z,94.80
2018-04-23T00:13:24.063Z,95.30
2018-04-23T00:15:51.546Z,95.30
2018-04-23T00:18:19.792Z,95.50
2018-04-23T00:20:47.287Z,95.50
2018-04-23T00:23:14.796Z,95.70
2018-04-23T00:25:42.266Z,95.60
2018-04-23T00:28:09.742Z,95.30
2018-04-23T00:30:37.992Z,95.30
2018-04-23T00:33:05.467Z,95.20
2018-04-23T00:35:32.939Z,94.10
2018-04-23T00:38:00.446Z,94.40
2018-04-23T00:40:27.931Z,94.60
2018-04-23T00:42:55.406Z,94.70
2018-04-23T00:45:22.895Z,94.60
2018-04-23T00:47:50.403Z,95.00
2018-04-23T00:50:17.889Z,95.90
2018-04-23T00:52:45.392Z,95.60
2018-04-23T00:55:12.869Z,95.70
2018-04-23T00:57:40.345Z,95.70
2018-04-23T01:00:08.611Z,93.90
2018-04-23T01:02:36.082Z,93.90
2018-04-23T01:05:04.323Z,94.30
2018-04-23T01:07:31.801Z,94.00
2018-04-23T01:09:59.257Z,93.80
2018-04-23T01:12:26.709Z,93.90
2018-04-23T01:14:54.180Z,93.50
2018-04-23T01:17:21.625Z,93.30
2018-04-23T01:19:49.094Z,93.20
2018-04-23T01:22:16.559Z,93.30
2018-04-23T01:24:44.017Z,93.10
2018-04-23T01:27:11.473Z,92.90
2018-04-23T01:29:38.934Z,92.80
2018-04-23T01:32:07.131Z,92.60
2018-04-23T01:34:34.593Z,92.60
2018-04-23T01:37:02.034Z,92.50
2018-04-23T01:39:29.486Z,92.50
2018-04-23T01:41:57.701Z,92.40
2018-04-23T01:44:25.164Z,92.40
2018-04-23T01:46:52.621Z,92.50
2018-04-23T01:49:20.079Z,92.50
2018-04-23T01:51:47.537Z,92.60
2018-04-23T01:54:14.986Z,92.50
2018-04-23T01:56:42.440Z,92.60
2018-04-23T01:59:09.898Z,92.50
2018-04-23T02:01:37.325Z,92.50
2018-04-23T02:04:05.538Z,92.60
2018-04-23T02:06:32.986Z,92.50
2018-04-23T02:09:00.476Z,92.60
2018-04-23T02:11:27.913Z,93.20
2018-04-23T02:13:55.375Z,93.20
2018-04-23T02:16:22.821Z,93.10
2018-04-23T02:18:50.304Z,93.00
2018-04-23T02:21:17.762Z,93.00
2018-04-23T02:23:45.249Z,92.80
2018-04-23T02:26:12.718Z,92.60
2018-04-23T02:28:40.933Z,92.50
2018-04-23T02:31:08.411Z,92.50
2018-04-23T02:33:35.869Z,92.50
2018-04-23T02:36:03.351Z,92.50
2018-04-23T02:38:31.611Z,92.70
2018-04-23T02:40:59.074Z,92.70
2018-04-23T02:43:26.527Z,92.60
2018-04-23T02:45:53.977Z,92.70
2018-04-23T02:48:21.448Z,92.80
2018-04-23T02:50:48.928Z,92.80
2018-04-23T02:53:17.171Z,93.10
2018-04-23T02:55:44.648Z,93.10
2018-04-23T02:58:12.869Z,93.20
2018-04-23T03:00:40.327Z,93.20
2018-04-23T03:03:07.788Z,93.20
2018-04-23T03:05:35.263Z,93.10
2018-04-23T03:08:02.706Z,93.10
2018-04-23T03:10:30.176Z,93.20
2018-04-23T03:12:57.634Z,93.30
2018-04-23T03:15:25.111Z,93.30
2018-04-23T03:17:52.570Z,93.40
2018-04-23T03:20:20.026Z,93.50
2018-04-23T03:22:47.486Z,93.60
2018-04-23T03:25:15.737Z,93.70
2018-04-23T03:27:43.192Z,93.60
2018-04-23T03:30:10.657Z,93.70
2018-04-23T03:32:38.136Z,93.80
2018-04-23T03:35:05.594Z,93.90
2018-04-23T03:37:33.054Z,94.00
2018-04-23T03:40:00.508Z,94.40
2018-04-23T03:42:27.946Z,94.30
2018-04-23T03:44:55.424Z,94.30
2018-04-23T03:47:22.858Z,94.30
2018-04-23T03:49:50.314Z,94.30
2018-04-23T03:52:17.782Z,95.10
2018-04-23T03:54:45.233Z,95.30
2018-04-23T03:57:12.686Z,95.20
2018-04-23T03:59:40.185Z,95.20
2018-04-23T04:02:08.399Z,95.10
2018-04-23T04:04:35.878Z,95.00
2018-04-23T04:07:03.330Z,95.00
2018-04-23T04:09:30.775Z,95.00
2018-04-23T04:15:15.470Z,95.00
2018-04-23T04:20:56.669Z,95.00
2018-04-23T04:23:24.128Z,95.10
2018-04-23T04:25:51.571Z,95.10
2018-04-23T04:28:19.014Z,95.30
2018-04-23T04:30:46.510Z,95.30
2018-04-23T04:33:13.952Z,95.40
2018-04-23T04:35:41.464Z,95.50
2018-04-23T04:38:08.879Z,95.40
2018-04-23T04:40:36.333Z,95.50
2018-04-23T04:43:03.798Z,95.60
2018-04-23T04:45:31.232Z,95.70
2018-04-23T04:47:58.693Z,95.60
2018-04-23T04:50:26.172Z,95.00
2018-04-23T04:52:53.624Z,95.30
2018-04-23T04:55:21.134Z,95.90
2018-04-23T04:57:48.604Z,96.00
2018-04-23T05:00:16.056Z,95.50
2018-04-23T05:02:43.533Z,95.60
2018-04-23T05:05:11.015Z,95.00
2018-04-23T05:07:38.496Z,95.10
2018-04-23T05:10:06.699Z,95.70
2018-04-23T05:12:34.180Z,95.60
2018-04-23T05:15:01.637Z,96.10
2018-04-23T05:17:29.095Z,98.20
2018-04-23T05:19:56.533Z,99.50
2018-04-23T05:22:23.984Z,99.90
2018-04-23T05:24:51.428Z,99.90
2018-04-23T05:27:19.637Z,99.90
2018-04-23T05:29:47.096Z,99.90
2018-04-23T05:32:14.553Z,99.90
2018-04-23T05:34:42.027Z,99.90
2018-04-23T05:37:09.482Z,99.90
2018-04-23T05:39:36.959Z,99.90
2018-04-23T05:42:04.429Z,99.90
2018-04-23T05:44:31.874Z,99.90
2018-04-23T05:46:59.342Z,99.90
2018-04-23T05:49:27.574Z,99.90
2018-04-23T05:51:55.067Z,99.90
2018-04-23T05:54:22.556Z,99.90
2018-04-23T05:56:50.010Z,99.90
2018-04-23T05:59:17.470Z,99.90
2018-04-23T06:01:44.934Z,99.90
2018-04-23T06:04:12.379Z,99.90
2018-04-23T06:06:39.863Z,99.90
2018-04-23T06:09:07.317Z,99.90
2018-04-23T06:11:34.798Z,99.90
2018-04-23T06:14:02.269Z,99.90
2018-04-23T06:16:29.747Z,99.90
2018-04-23T06:18:57.208Z,99.90
2018-04-23T06:21:25.444Z,99.90
2018-04-23T06:23:52.901Z,99.90
2018-04-23T06:26:20.350Z,99.90
2018-04-23T06:28:47.794Z,99.90
2018-04-23T06:31:15.262Z,99.90
2018-04-23T06:33:42.713Z,99.90
2018-04-23T06:36:10.177Z,99.90
2018-04-23T06:38:37.629Z,99.90
2018-04-23T06:41:05.090Z,99.90
2018-04-23T06:43:33.334Z,99.90
2018-04-23T06:46:00.793Z,99.90
2018-04-23T06:48:28.259Z,99.90
2018-04-23T06:50:55.709Z,99.90
2018-04-23T06:53:23.167Z,99.90
2018-04-23T06:55:50.610Z,99.90
2018-04-23T06:58:18.068Z,99.90
2018-04-23T07:00:46.308Z,99.90
2018-04-23T07:03:13.771Z,99.90
2018-04-23T07:05:41.263Z,99.90
2018-04-23T07:08:09.473Z,99.90
2018-04-23T07:10:36.962Z,99.90
2018-04-23T07:13:04.423Z,99.90
2018-04-23T07:15:31.882Z,99.90
2018-04-23T07:17:59.403Z,99.90
2018-04-23T07:20:26.878Z,99.90
2018-04-23T07:22:54.339Z,99.90
2018-04-23T07:25:21.795Z,99.90
2018-04-23T07:27:49.239Z,99.90
2018-04-23T07:30:16.699Z,99.90
2018-04-23T07:32:44.155Z,99.90
2018-04-23T07:35:11.603Z,99.90
2018-04-23T07:37:39.086Z,99.90
2018-04-23T07:40:06.529Z,99.90
2018-04-23T07:42:33.990Z,99.90
2018-04-23T07:45:01.450Z,99.90
2018-04-23T07:47:28.913Z,99.90
2018-04-23T07:49:56.358Z,99.90
2018-04-23T07:52:23.813Z,99.90
2018-04-23T07:54:51.270Z,99.90
2018-04-23T07:57:18.738Z,99.90
2018-04-23T07:59:46.186Z,99.80
2018-04-23T08:02:13.632Z,99.20
2018-04-23T08:04:41.107Z,98.70
2018-04-23T08:07:08.563Z,97.60
2018-04-23T08:09:36.035Z,97.90
2018-04-23T08:12:03.478Z,98.40
2018-04-23T08:14:30.969Z,97.70
2018-04-23T08:16:58.401Z,96.60
2018-04-23T08:19:25.855Z,96.20
2018-04-23T08:21:53.311Z,95.60
2018-04-23T08:24:20.761Z,95.40
2018-04-23T08:26:48.214Z,95.10
2018-04-23T08:29:15.696Z,94.90
2018-04-23T08:31:43.186Z,95.10
2018-04-23T08:34:11.431Z,94.60
2018-04-23T08:36:38.882Z,94.60
2018-04-23T08:39:06.366Z,94.50
2018-04-23T08:41:33.798Z,94.80
2018-04-23T08:44:01.282Z,94.60
2018-04-23T08:46:29.497Z,93.10
2018-04-23T08:48:56.975Z,93.10
2018-04-23T08:51:24.429Z,92.90
2018-04-23T08:53:51.891Z,91.80
2018-04-23T08:56:19.345Z,92.80
2018-04-23T08:58:46.814Z,92.30
2018-04-23T09:01:14.266Z,91.50
2018-04-23T09:03:41.713Z,91.40
2018-04-23T09:06:09.166Z,91.80
2018-04-23T09:08:36.646Z,92.60
2018-04-23T09:11:04.093Z,91.70
2018-04-23T09:13:31.587Z,90.90
2018-04-23T09:15:59.802Z,90.10
2018-04-23T09:18:27.265Z,90.10
2018-04-23T09:20:54.718Z,90.80
2018-04-23T09:23:22.194Z,92.20
2018-04-23T09:25:49.650Z,93.20
2018-04-23T09:28:17.126Z,93.60
2018-04-23T09:30:44.582Z,93.00
2018-04-23T09:33:12.055Z,93.20
2018-04-23T09:35:39.502Z,92.40
2018-04-23T09:38:06.937Z,93.10
2018-04-23T09:40:34.404Z,93.90
2018-04-23T09:43:01.845Z,92.70
2018-04-23T09:45:29.305Z,92.20
2018-04-23T09:47:56.797Z,91.80
2018-04-23T09:50:24.262Z,90.90
2018-04-23T09:52:51.727Z,91.40
2018-04-23T09:55:19.969Z,92.50
2018-04-23T09:57:47.414Z,92.50
2018-04-23T10:00:14.875Z,92.30
2018-04-23T10:02:42.354Z,91.30
2018-04-23T10:05:09.814Z,90.50
2018-04-23T10:07:37.270Z,88.60
2018-04-23T10:10:04.749Z,88.80
2018-04-23T10:12:32.970Z,89.60
2018-04-23T10:15:00.430Z,89.70
2018-04-23T10:17:27.888Z,90.80
2018-04-23T10:19:55.400Z,91.30
2018-04-23T10:22:22.833Z,91.00
2018-04-23T10:24:50.315Z,92.50
2018-04-23T10:27:17.765Z,91.80
2018-04-23T10:29:46.023Z,92.20
2018-04-23T10:32:13.486Z,92.10
2018-04-23T10:34:40.990Z,92.10
2018-04-23T10:37:08.440Z,92.30
2018-04-23T10:39:35.905Z,93.40
2018-04-23T10:42:03.369Z,92.00
2018-04-23T10:44:30.870Z,91.60
2018-04-23T10:46:58.326Z,91.20
2018-04-23T10:49:25.782Z,89.10
2018-04-23T10:51:53.239Z,84.60
2018-04-23T10:54:20.743Z,84.30
2018-04-23T10:56:48.213Z,87.30
2018-04-23T10:59:15.726Z,90.40
2018-04-23T11:01:43.992Z,92.90
2018-04-23T11:04:11.445Z,92.90
2018-04-23T11:06:38.934Z,92.00
2018-04-23T11:09:07.142Z,93.20
2018-04-23T11:11:34.615Z,92.80
2018-04-23T11:14:02.071Z,92.60
2018-04-23T11:16:29.530Z,90.30
2018-04-23T11:18:56.983Z,90.30
2018-04-23T11:21:24.470Z,91.70
2018-04-23T11:23:51.918Z,92.90
2018-04-23T11:26:19.398Z,92.90
2018-04-23T11:28:47.609Z,93.70
2018-04-23T11:31:15.067Z,93.70
2018-04-23T11:33:42.514Z,93.40
2018-04-23T11:36:09.979Z,93.30
2018-04-23T11:38:37.447Z,93.20
2018-04-23T11:41:04.914Z,94.00
2018-04-23T11:43:32.368Z,94.00
2018-04-23T11:45:59.873Z,94.20
2018-04-23T11:48:27.307Z,93.70
2018-04-23T11:50:54.788Z,93.30
2018-04-23T11:53:23.009Z,93.90
2018-04-23T11:55:50.470Z,93.90
2018-04-23T11:58:17.928Z,93.40
2018-04-23T12:00:45.415Z,93.50
2018-04-23T12:03:12.869Z,93.10
2018-04-23T12:05:40.333Z,93.10
2018-04-23T12:08:07.812Z,92.00
2018-04-23T12:10:36.043Z,91.10
2018-04-23T12:13:03.478Z,91.10
2018-04-23T12:15:30.933Z,89.90
2018-04-23T12:17:58.394Z,91.80
2018-04-23T12:20:25.894Z,89.20
2018-04-23T12:22:53.345Z,83.00
2018-04-23T12:25:20.796Z,80.50
2018-04-23T12:27:48.263Z,76.50
2018-04-23T12:30:15.712Z,78.30
2018-04-23T12:32:43.166Z,83.30
2018-04-23T12:35:10.625Z,86.30
2018-04-23T12:37:38.083Z,89.30
2018-04-23T12:40:05.550Z,91.40
2018-04-23T12:42:33.012Z,92.50
2018-04-23T12:45:00.521Z,92.70
2018-04-23T12:47:28.015Z,92.30
2018-04-23T12:49:55.470Z,91.80
2018-04-23T12:52:22.932Z,92.00
2018-04-23T12:54:50.386Z,91.40
2018-04-23T12:57:17.844Z,92.10
2018-04-23T12:59:45.302Z,92.00
2018-04-23T13:02:12.765Z,91.60
2018-04-23T13:04:40.211Z,90.20
2018-04-23T13:07:07.669Z,90.70
2018-04-23T13:09:35.147Z,91.70
2018-04-23T13:12:02.606Z,92.10
2018-04-23T13:14:30.059Z,92.30
2018-04-23T13:16:57.510Z,91.90
2018-04-23T13:19:24.957Z,92.50
2018-04-23T13:21:52.457Z,92.10
2018-04-23T13:24:20.684Z,91.60
2018-04-23T13:26:48.146Z,91.60
2018-04-23T13:29:15.598Z,92.10
2018-04-23T13:31:43.057Z,92.00
2018-04-23T13:34:10.514Z,92.60
2018-04-23T13:36:37.987Z,92.00
2018-04-23T13:39:06.230Z,91.90
2018-04-23T13:41:33.701Z,92.10
2018-04-23T13:44:01.174Z,91.20
2018-04-23T13:46:28.664Z,91.30
2018-04-23T13:48:56.151Z,91.90
2018-04-23T13:51:23.635Z,92.30
2018-04-23T13:53:51.106Z,92.90
2018-04-23T13:56:18.571Z,93.10
2018-04-23T13:58:46.054Z,92.20
2018-04-23T14:01:13.535Z,91.30
2018-04-23T14:03:41.021Z,91.10
2018-04-23T14:06:08.495Z,91.30
2018-04-23T14:08:35.975Z,90.80
2018-04-23T14:11:03.426Z,91.60
2018-04-23T14:13:30.918Z,91.70
2018-04-23T14:15:58.366Z,91.70
2018-04-23T14:18:25.822Z,91.00
2018-04-23T14:20:53.278Z,90.40
2018-04-23T14:23:20.725Z,90.40
2018-04-23T14:25:48.342Z,90.70
2018-04-23T14:28:15.817Z,89.70
2018-04-23T14:30:43.278Z,90.70
2018-04-23T14:33:10.771Z,90.50
2018-04-23T14:35:38.214Z,90.10
2018-04-23T14:38:06.443Z,85.60
2018-04-23T14:40:33.877Z,85.60
2018-04-23T14:43:01.369Z,85.40
2018-04-23T14:45:28.823Z,83.80
2018-04-23T14:47:56.279Z,81.80
2018-04-23T14:50:23.734Z,79.60
2018-04-23T14:52:51.180Z,79.30
2018-04-23T14:55:18.640Z,80.00
2018-04-23T14:57:46.093Z,80.20
2018-04-23T15:00:13.538Z,78.70
2018-04-23T15:02:41.020Z,78.40
2018-04-23T15:05:08.468Z,79.20
2018-04-23T15:07:35.925Z,80.40
2018-04-23T15:10:03.375Z,80.90
2018-04-23T15:12:30.851Z,80.30
2018-04-23T15:14:58.322Z,80.70
2018-04-23T15:17:25.772Z,80.60
2018-04-23T15:19:53.237Z,81.80
2018-04-23T15:22:20.671Z,81.70
2018-04-23T15:24:48.154Z,83.70
2018-04-23T15:27:15.614Z,90.10
2018-04-23T15:29:43.075Z,91.20
2018-04-23T15:32:10.554Z,92.50
2018-04-23T15:34:38.782Z,93.60
2018-04-23T15:37:06.229Z,93.60
2018-04-23T15:39:33.682Z,93.70
2018-04-23T15:42:01.130Z,93.80
2018-04-23T15:44:28.590Z,94.20
2018-04-23T15:46:56.051Z,94.60
2018-04-23T15:49:23.514Z,94.60
2018-04-23T15:51:50.977Z,94.90
2018-04-23T15:54:18.457Z,95.20
2018-04-23T15:56:45.889Z,95.40
2018-04-23T15:59:13.367Z,95.80
2018-04-23T16:01:40.807Z,95.90
2018-04-23T16:04:08.266Z,96.30
2018-04-23T16:06:35.723Z,96.30
2018-04-23T16:09:06.093Z,96.50
2018-04-23T16:11:33.575Z,96.80
2018-04-23T16:14:01.062Z,97.00
2018-04-23T16:16:28.518Z,97.20
2018-04-23T16:18:55.977Z,97.60
2018-04-23T16:21:23.430Z,97.80
2018-04-23T16:23:50.901Z,98.00
2018-04-23T16:26:18.350Z,98.50
2018-04-23T16:28:45.919Z,98.80
2018-04-23T16:31:13.383Z,98.80
2018-04-23T16:33:40.850Z,99.10
2018-04-23T16:36:08.282Z,99.10
2018-04-23T16:38:35.741Z,99.30
2018-04-23T16:41:03.186Z,98.90
2018-04-23T16:43:30.642Z,98.80
2018-04-23T16:45:58.098Z,98.90
2018-04-23T16:48:25.545Z,99.00
2018-04-23T16:50:53.032Z,99.20
2018-04-23T16:53:20.494Z,99.70
2018-04-23T16:55:47.955Z,99.80
2018-04-23T16:58:15.407Z,99.80
2018-04-23T17:00:42.890Z,99.90
2018-04-23T17:03:10.326Z,99.90
2018-04-23T17:05:37.782Z,99.90
2018-04-23T17:08:05.256Z,99.90
2018-04-23T17:10:32.713Z,99.90
2018-04-23T17:13:00.179Z,99.90
2018-04-23T17:15:28.446Z,99.90
2018-04-23T17:17:56.673Z,99.90
2018-04-23T17:20:24.146Z,99.90
2018-04-23T17:25:24.519Z,99.90
2018-04-23T17:27:51.963Z,99.90
2018-04-23T17:30:19.433Z,99.90
2018-04-23T17:32:46.894Z,99.90
2018-04-23T17:35:14.347Z,99.90
2018-04-23T17:37:41.789Z,99.90
2018-04-23T17:40:09.280Z,99.90
2018-04-23T17:42:36.735Z,99.90
2018-04-23T17:45:04.995Z,99.90
2018-04-23T17:47:32.499Z,99.90
2018-04-23T17:50:00.816Z,99.90
2018-04-23T17:52:28.291Z,99.90
2018-04-23T17:54:55.749Z,99.90
2018-04-23T17:57:23.907Z,99.90
2018-04-23T17:59:51.363Z,99.60
2018-04-23T18:02:18.839Z,99.70
2018-04-23T18:04:46.336Z,99.60
2018-04-23T18:07:13.823Z,99.60
2018-04-23T18:09:41.323Z,97.60
2018-04-23T18:12:09.585Z,94.00
2018-04-23T18:14:37.085Z,93.90
2018-04-23T18:17:05.214Z,93.90
2018-04-23T18:19:32.728Z,93.70
2018-04-23T18:22:00.218Z,93.70
2018-04-23T18:24:27.703Z,93.90
2018-04-23T18:26:55.964Z,94.10
2018-04-23T18:29:23.440Z,94.10
2018-04-23T18:31:51.701Z,94.20
2018-04-23T18:34:19.202Z,94.20
2018-04-23T18:36:46.711Z,94.10
2018-04-23T18:39:14.172Z,93.80
2018-04-23T18:41:41.672Z,93.80
2018-04-23T18:44:09.155Z,94.10
2018-04-23T18:46:36.643Z,94.10
2018-04-23T18:49:04.103Z,94.10
2018-04-23T18:51:31.599Z,93.90
2018-04-23T18:53:59.065Z,93.80
2018-04-23T18:56:26.571Z,93.40
2018-04-23T18:58:54.031Z,93.20
2018-04-23T19:01:22.237Z,93.00
2018-04-23T19:03:49.711Z,92.80
2018-04-23T19:06:17.179Z,92.60
2018-04-23T19:08:45.811Z,92.60
2018-04-23T19:11:13.266Z,92.40
2018-04-23T19:13:40.740Z,92.70
2018-04-23T19:16:08.965Z,93.30
2018-04-23T19:18:36.433Z,93.30
2018-04-23T19:21:04.091Z,92.70
2018-04-23T19:23:31.578Z,92.80
2018-04-23T19:25:59.041Z,93.10
2018-04-23T19:28:26.514Z,93.40
2018-04-23T19:30:54.755Z,93.20
2018-04-23T19:33:22.243Z,93.10
2018-04-23T19:35:50.578Z,93.20
2018-04-23T19:38:17.970Z,93.20
2018-04-23T19:40:46.209Z,93.70
2018-04-23T19:43:13.668Z,93.70
2018-04-23T19:45:41.105Z,93.60
2018-04-23T19:48:08.585Z,93.80
2018-04-23T19:50:36.055Z,93.90
2018-04-23T19:53:03.531Z,93.50
2018-04-23T19:55:31.009Z,93.50
2018-04-23T19:57:59.237Z,93.50
2018-04-23T20:00:26.752Z,93.50
2018-04-23T20:02:54.234Z,93.60
2018-04-23T20:05:21.703Z,93.80
2018-04-23T20:07:49.177Z,94.10
2018-04-23T20:10:16.646Z,93.90
2018-04-23T20:12:44.143Z,93.90
2018-04-23T20:15:11.627Z,94.00
2018-04-23T20:17:39.107Z,93.90
2018-04-23T20:20:06.621Z,94.20
2018-04-23T20:22:34.120Z,94.40
2018-04-23T20:25:01.569Z,94.70
2018-04-23T20:27:30.478Z,94.90
2018-04-23T20:29:57.930Z,95.40
2018-04-23T20:32:25.427Z,95.30
2018-04-23T20:34:53.663Z,96.00
2018-04-23T20:37:23.262Z,96.60
2018-04-23T20:39:50.727Z,96.60
2018-04-23T20:42:18.226Z,96.60
2018-04-23T20:44:45.694Z,96.50
2018-04-23T20:47:13.151Z,97.00
2018-04-23T20:49:40.629Z,97.30
2018-04-23T20:52:08.839Z,97.20
2018-04-23T20:54:36.330Z,97.20
2018-04-23T20:57:08.143Z,97.30
2018-04-23T20:59:36.491Z,97.30
2018-04-23T21:02:04.693Z,97.70
2018-04-23T21:04:32.179Z,97.70
2018-04-23T21:06:59.667Z,98.10
2018-04-23T21:09:27.174Z,98.50
2018-04-23T21:11:54.671Z,98.90
2018-04-23T21:14:22.968Z,98.70
2018-04-23T21:16:50.526Z,98.70
2018-04-23T21:19:18.022Z,97.60
2018-04-23T21:21:45.486Z,97.50
2018-04-23T21:24:13.636Z,97.20
2018-04-23T21:26:44.099Z,97.00
2018-04-23T21:29:11.578Z,97.20
2018-04-23T21:31:39.818Z,97.80
2018-04-23T21:34:08.104Z,98.10
2018-04-23T21:36:36.175Z,98.10
2018-04-23T21:39:03.690Z,98.60
2018-04-23T21:41:31.159Z,98.70
2018-04-23T21:43:58.680Z,98.50
2018-04-23T21:46:26.918Z,99.40
2018-04-23T21:48:54.409Z,99.40
2018-04-23T21:51:21.866Z,99.40
2018-04-23T21:53:50.118Z,99.80
2018-04-23T21:56:17.565Z,99.70
2018-04-23T21:58:45.021Z,99.90
2018-04-23T22:01:12.526Z,99.90
2018-04-23T22:03:39.991Z,99.80
2018-04-23T22:06:07.576Z,99.70
2018-04-23T22:08:35.770Z,99.10
2018-04-23T22:11:03.275Z,99.10
2018-04-23T22:13:31.503Z,99.10
2018-04-23T22:15:58.983Z,99.10
2018-04-23T22:18:26.463Z,99.80
2018-04-23T22:20:54.693Z,99.90
2018-04-23T22:23:22.219Z,99.90
2018-04-23T22:25:49.729Z,99.90
2018-04-23T22:28:17.220Z,99.80
2018-04-23T22:30:44.779Z,99.50
2018-04-23T22:33:12.243Z,98.60
2018-04-23T22:35:39.782Z,99.30
2018-04-23T22:38:08.019Z,99.90
2018-04-23T22:40:35.552Z,99.90
2018-04-23T22:43:03.001Z,99.90
2018-04-23T22:45:30.464Z,99.90
2018-04-23T22:47:57.916Z,99.90
2018-04-23T22:50:25.418Z,99.90
2018-04-23T22:52:52.811Z,99.90
2018-04-23T22:55:21.030Z,99.90
2018-04-23T22:57:48.473Z,99.90
2018-04-23T23:00:15.963Z,99.90
2018-04-23T23:02:43.405Z,99.90
2018-04-23T23:05:10.860Z,99.90
2018-04-23T23:07:38.316Z,99.90
2018-04-23T23:10:05.771Z,99.90
2018-04-23T23:12:33.224Z,99.90
2018-04-23T23:15:00.674Z,99.90
2018-04-23T23:17:28.113Z,99.90
2018-04-23T23:19:55.552Z,99.90
2018-04-23T23:22:23.014Z,99.40
2018-04-23T23:24:50.463Z,99.90
2018-04-23T23:27:18.687Z,98.90
2018-04-23T23:29:46.130Z,98.90
2018-04-23T23:32:14.363Z,98.90
2018-04-23T23:34:42.575Z,98.10
2018-04-23T23:37:10.051Z,98.10
2018-04-23T23:39:37.504Z,98.00
2018-04-23T23:42:04.965Z,98.30
2018-04-23T23:44:32.425Z,99.90
2018-04-23T23:46:59.880Z,99.90
2018-04-23T23:49:28.092Z,99.90
2018-04-23T23:51:55.550Z,99.90
2018-04-23T23:54:23.005Z,99.90
2018-04-23T23:56:50.466Z,99.90
2018-04-23T23:59:17.902Z,99.50
